Time;durP1;ratioP1;P1;durP2;ratioP2;P2;SDS_P1;SDS_P2;PMS_P1;PMS_P2;Temp;Humidity;BMP_temperature;BMP_pressure;BME280_temperature;BME280_humidity;BME280_pressure;Samples;Min_cycle;Max_cycle;Signal;HPM_P1;HPM_P2
2024/01/03 00:00:08;;;;;;;19.02;11.00;;;;;;;6.18;100.00;98981.59;5093256;28;20044;-45
2024/01/03 00:02:37;;;;;;;19.60;11.45;;;;;;;6.19;100.00;98973.56;5093012;28;20051;-46
2024/01/03 00:05:09;;;;;;;18.58;10.57;;;;;;;6.20;100.00;98972.59;5093036;28;20060;-46
2024/01/03 00:07:37;;;;;;;20.05;10.77;;;;;;;6.14;100.00;98962.38;5085479;28;20048;-48
2024/01/03 00:10:34;;;;;;;20.80;11.10;;;;;;;6.16;100.00;98960.50;5072814;28;20056;-45
2024/01/03 00:13:05;;;;;;;22.02;11.27;;;;;;;6.10;100.00;98960.91;5072637;28;20507;-47
2024/01/03 00:16:19;;;;;;;20.20;11.48;;;;;;;6.04;100.00;98966.56;5072869;28;20406;-46
2024/01/03 00:18:49;;;;;;;;;;;;;;;6.07;100.00;98966.34;5073110;28;20051;-48
2024/01/03 00:21:23;;;;;;;18.08;10.70;;;;;;;6.06;100.00;98963.81;5072596;28;19924;-45
2024/01/03 00:23:55;;;;;;;22.20;11.70;;;;;;;6.08;100.00;98953.97;5072823;28;20127;-45
2024/01/03 00:26:25;;;;;;;19.80;11.07;;;;;;;6.12;100.00;98950.19;5072579;28;20044;-46
2024/01/03 00:28:54;;;;;;;20.05;11.50;;;;;;;6.14;100.00;98948.31;5072202;28;20437;-46
2024/01/03 00:31:40;;;;;;;21.10;11.90;;;;;;;6.18;100.00;98955.13;5072564;28;20049;-45
2024/01/03 00:34:30;;;;;;;22.90;13.45;;;;;;;6.25;100.00;98956.41;5071554;28;20123;-46
2024/01/03 00:36:58;;;;;;;24.35;13.88;;;;;;;6.24;100.00;98973.25;5072309;28;20044;-45
2024/01/03 00:39:27;;;;;;;23.98;13.77;;;;;;;6.19;100.00;98980.66;5052495;28;20045;-45
2024/01/03 00:41:57;;;;;;;27.25;15.00;;;;;;;6.06;100.00;98982.34;5052217;28;20045;-44
2024/01/03 00:44:26;;;;;;;26.50;15.27;;;;;;;6.11;100.00;98986.41;5058792;28;20044;-46
2024/01/03 00:46:56;;;;;;;28.77;15.45;;;;;;;6.21;100.00;98997.28;5092704;28;20386;-45
2024/01/03 00:49:25;;;;;;;27.10;14.70;;;;;;;6.23;100.00;98996.25;5092497;28;20044;-44
2024/01/03 00:51:55;;;;;;;28.08;16.02;;;;;;;6.28;100.00;99004.75;5092513;28;20048;-46
2024/01/03 00:54:25;;;;;;;25.35;15.18;;;;;;;6.32;100.00;99000.13;5092385;28;20134;-45
2024/01/03 00:56:54;;;;;;;24.17;13.63;;;;;;;6.34;100.00;99007.97;5091707;28;20053;-45
2024/01/03 00:59:25;;;;;;;25.60;12.88;;;;;;;6.35;100.00;98999.91;5092306;28;20146;-46
2024/01/03 01:01:54;;;;;;;24.52;13.73;;;;;;;6.41;100.00;98998.69;5092288;28;20051;-46
2024/01/03 01:04:23;;;;;;;23.30;12.27;;;;;;;6.40;100.00;98989.91;5089426;28;20059;-46
2024/01/03 01:06:52;;;;;;;21.48;11.60;;;;;;;6.40;100.00;98978.44;5072023;28;20044;-45
2024/01/03 01:09:20;;;;;;;20.23;10.98;;;;;;;6.31;100.00;98962.19;5071769;28;20060;-45
2024/01/03 01:11:49;;;;;;;17.85;10.63;;;;;;;6.28;100.00;98962.38;5078190;28;20059;-46
2024/01/03 01:14:17;;;;;;;23.48;11.32;;;;;;;6.31;100.00;98967.47;5091995;28;20473;-45
2024/01/03 01:16:47;;;;;;;20.90;11.00;;;;;;;6.31;100.00;98959.53;5092074;28;20151;-44
2024/01/03 01:19:15;;;;;;;18.15;11.23;;;;;;;6.36;100.00;98974.28;5073671;28;20045;-46
2024/01/03 01:21:44;;;;;;;19.42;11.20;;;;;;;6.26;100.00;98992.53;5071480;28;20052;-45
2024/01/03 01:24:12;;;;;;;23.73;12.10;;;;;;;6.30;100.00;98994.91;5071804;28;20144;-45
2024/01/03 01:26:40;;;;;;;19.45;12.45;;;;;;;6.28;100.00;98978.28;5071958;28;20556;-45
2024/01/03 01:29:09;;;;;;;22.95;12.95;;;;;;;6.15;100.00;98972.03;5071625;28;20044;-45
2024/01/03 01:31:37;;;;;;;22.50;13.40;;;;;;;6.05;100.00;98973.56;5077116;28;20137;-45
2024/01/03 01:34:07;;;;;;;25.10;14.18;;;;;;;6.11;100.00;98967.88;5078934;28;20040;-46
2024/01/03 01:36:36;;;;;;;25.35;14.13;;;;;;;5.84;100.00;98958.97;5091758;28;20089;-46
2024/01/03 01:39:04;;;;;;;25.60;13.57;;;;;;;5.88;100.00;98953.38;5091837;28;20548;-46
2024/01/03 01:41:32;;;;;;;26.30;13.75;;;;;;;5.80;100.00;98953.03;5091655;28;20055;-46
2024/01/03 01:44:01;;;;;;;27.83;13.95;;;;;;;5.77;100.00;98942.59;5091726;28;20750;-45
2024/01/03 01:46:29;;;;;;;24.73;13.40;;;;;;;5.87;100.00;98950.81;5071606;28;20524;-45
2024/01/03 01:48:57;;;;;;;26.48;13.18;;;;;;;5.94;100.00;98946.91;5071223;28;20045;-45
2024/01/03 01:51:28;;;;;;;24.77;13.43;;;;;;;5.97;100.00;98946.69;5071580;28;20056;-45
2024/01/03 01:53:56;;;;;;;22.05;11.88;;;;;;;5.91;100.00;98941.81;5071566;28;20061;-46
2024/01/03 01:56:25;;;;;;;24.40;12.43;;;;;;;6.06;100.00;98943.47;5071517;28;20049;-46
2024/01/03 01:58:54;;;;;;;20.67;11.77;;;;;;;6.05;100.00;98938.28;5071604;28;20417;-46
2024/01/03 02:01:23;;;;;;;21.15;12.45;;;;;;;5.84;100.00;98937.78;5071081;28;20045;-45
2024/01/03 02:03:53;;;;;;;22.50;11.65;;;;;;;5.66;100.00;98932.69;5071895;28;20082;-44
2024/01/03 02:06:22;;;;;;;22.42;11.82;;;;;;;5.82;100.00;98927.31;5091800;28;20178;-45
2024/01/03 02:08:52;;;;;;;20.83;12.05;;;;;;;5.86;100.00;98938.53;5094906;28;20124;-45
2024/01/03 02:11:20;;;;;;;19.52;10.98;;;;;;;5.95;100.00;98932.72;5095550;28;20131;-45
2024/01/03 02:13:49;;;;;;;20.33;10.90;;;;;;;5.91;100.00;98928.56;5095391;28;20501;-46
2024/01/03 02:16:17;;;;;;;18.95;11.55;;;;;;;5.90;100.00;98918.91;5095478;28;20386;-44
2024/01/03 02:18:50;;;;;;;21.77;11.18;;;;;;;5.99;100.00;98915.72;5095661;28;20500;-46
2024/01/03 02:21:20;;;;;;;19.98;10.70;;;;;;;6.10;100.00;98915.88;5095356;28;20040;-45
2024/01/03 02:23:48;;;;;;;20.13;10.30;;;;;;;6.14;100.00;98911.25;5078241;28;20091;-47
2024/01/03 02:26:16;;;;;;;17.02;9.23;;;;;;;6.23;100.00;98915.94;5074783;28;20186;-46
2024/01/03 02:28:57;;;;;;;18.23;9.70;;;;;;;6.25;100.00;98904.31;5075087;28;20491;-45
2024/01/03 02:31:25;;;;;;;18.65;9.95;;;;;;;6.28;100.00;98906.78;5074829;28;20049;-45
2024/01/03 02:33:54;;;;;;;18.85;9.48;;;;;;;6.23;100.00;98905.34;5074771;28;20053;-46
2024/01/03 02:36:24;;;;;;;16.33;9.75;;;;;;;6.07;100.00;98902.81;5074841;28;20052;-46
2024/01/03 02:38:54;;;;;;;17.85;9.57;;;;;;;6.15;100.00;98889.09;5074619;28;20049;-44
2024/01/03 02:41:22;;;;;;;16.67;9.27;;;;;;;6.16;100.00;98866.97;5074517;28;20425;-46
2024/01/03 02:43:54;;;;;;;15.90;8.63;;;;;;;6.12;100.00;98868.97;5075029;28;20040;-45
2024/01/03 02:46:22;;;;;;;17.75;9.23;;;;;;;6.11;100.00;98864.63;5081066;28;20073;-45
2024/01/03 02:48:51;;;;;;;17.27;9.48;;;;;;;6.16;100.00;98857.22;5096036;28;20049;-46
2024/01/03 02:51:20;;;;;;;18.20;8.93;;;;;;;6.09;100.00;98866.53;5096583;28;20048;-47
2024/01/03 02:53:50;;;;;;;15.63;8.77;;;;;;;6.13;100.00;98875.97;5096692;28;20197;-47
2024/01/03 02:56:19;;;;;;;16.40;8.73;;;;;;;6.07;100.00;98852.53;5098982;28;20463;-48
2024/01/03 02:58:47;;;;;;;15.55;8.18;;;;;;;6.14;100.00;98848.53;5096942;28;20090;-45
2024/01/03 03:01:16;;;;;;;14.57;8.48;;;;;;;6.16;100.00;98851.09;5076707;28;20044;-47
2024/01/03 03:03:44;;;;;;;16.10;8.13;;;;;;;6.28;100.00;98861.75;5076042;28;20049;-47
2024/01/03 03:06:13;;;;;;;15.63;7.95;;;;;;;6.24;100.00;98844.34;5077074;28;20045;-46
2024/01/03 03:08:41;;;;;;;16.95;7.88;;;;;;;6.16;100.00;98846.66;5076464;28;20040;-46
2024/01/03 03:11:12;;;;;;;16.67;7.93;;;;;;;6.13;100.00;98841.56;5075337;28;20090;-46
2024/01/03 03:13:41;;;;;;;18.75;7.53;;;;;;;6.22;100.00;98856.00;5075429;28;20117;-47
2024/01/03 03:16:09;;;;;;;14.63;7.05;;;;;;;6.13;100.00;98862.72;5075223;28;20051;-45
2024/01/03 03:18:38;;;;;;;14.20;6.60;;;;;;;6.25;100.00;98861.94;5074909;28;20044;-45
2024/01/03 03:21:07;;;;;;;12.02;7.15;;;;;;;6.29;100.00;98884.66;5074012;28;20079;-45
2024/01/03 03:23:36;;;;;;;12.43;6.60;;;;;;;6.38;100.00;98885.84;5075371;28;20044;-46
2024/01/03 03:26:04;;;;;;;14.38;6.47;;;;;;;6.47;100.00;98889.72;5076462;28;20057;-45
2024/01/03 03:28:34;;;;;;;10.35;5.90;;;;;;;6.50;100.00;98881.56;5096483;28;20048;-46
2024/01/03 03:31:03;;;;;;;12.05;6.60;;;;;;;6.53;100.00;98865.44;5096343;28;20075;-46
2024/01/03 03:33:32;;;;;;;10.93;6.25;;;;;;;6.49;100.00;98875.41;5098814;28;20135;-46
2024/01/03 03:36:01;;;;;;;13.32;6.10;;;;;;;6.53;100.00;98874.25;5082632;28;20063;-45
2024/01/03 03:38:29;;;;;;;12.63;5.70;;;;;;;6.49;100.00;98874.56;5079553;28;20409;-46
2024/01/03 03:40:57;;;;;;;11.20;6.30;;;;;;;6.55;100.00;98860.88;5080084;28;20500;-45
2024/01/03 03:43:26;;;;;;;12.65;6.38;;;;;;;6.57;100.00;98864.31;5077303;28;20090;-45
2024/01/03 03:45:55;;;;;;;11.40;6.60;;;;;;;6.52;100.00;98864.59;5074281;28;20056;-46
2024/01/03 03:48:24;;;;;;;10.60;5.93;;;;;;;6.57;100.00;98856.38;5074537;28;20052;-45
2024/01/03 03:50:52;;;;;;;11.40;6.10;;;;;;;6.52;100.00;98863.75;5073677;28;20051;-45
2024/01/03 03:53:21;;;;;;;12.10;6.20;;;;;;;6.52;100.00;98866.41;5073755;28;20327;-44
2024/01/03 03:55:49;;;;;;;13.95;6.25;;;;;;;6.52;100.00;98869.91;5073367;28;20048;-45
2024/01/03 03:58:17;;;;;;;10.60;5.60;;;;;;;6.48;100.00;98879.00;5072838;28;20048;-46
2024/01/03 04:00:46;;;;;;;10.07;5.47;;;;;;;6.50;100.00;98871.81;5073139;28;20492;-47
2024/01/03 04:03:16;;;;;;;10.73;5.45;;;;;;;6.54;100.00;98880.38;5073442;28;20409;-45
2024/01/03 04:05:44;;;;;;;10.40;5.97;;;;;;;6.56;100.00;98875.84;5089582;28;20477;-45
2024/01/03 04:08:13;;;;;;;10.68;5.40;;;;;;;6.56;100.00;98886.44;5093217;28;20063;-45
2024/01/03 04:10:42;;;;;;;12.10;5.63;;;;;;;6.47;100.00;98887.91;5093038;28;20051;-46
2024/01/03 04:13:10;;;;;;;12.45;6.25;;;;;;;6.47;100.00;98897.66;5092980;28;20382;-46
2024/01/03 04:15:39;;;;;;;14.50;6.20;;;;;;;6.59;100.00;98907.44;5077708;28;20073;-45
2024/01/03 04:18:07;;;;;;;12.23;5.30;;;;;;;6.65;100.00;98912.31;5071599;28;20060;-48
2024/01/03 04:20:37;;;;;;;10.27;5.45;;;;;;;6.68;100.00;98908.66;5072840;28;20401;-46
2024/01/03 04:23:06;;;;;;;10.60;5.03;;;;;;;6.63;100.00;98913.38;5072777;28;20130;-46
2024/01/03 04:25:34;;;;;;;12.25;5.60;;;;;;;6.70;100.00;98910.25;5072968;28;20047;-45
2024/01/03 04:28:03;;;;;;;9.55;5.38;;;;;;;6.78;100.00;98907.94;5072735;28;20087;-46
2024/01/03 04:30:31;;;;;;;11.50;5.47;;;;;;;6.80;100.00;98900.72;5072487;28;20450;-45
2024/01/03 04:32:59;;;;;;;8.35;4.80;;;;;;;6.67;100.00;98893.69;5072608;28;20048;-45
2024/01/03 04:35:28;;;;;;;9.10;4.47;;;;;;;6.67;100.00;98897.19;5071959;28;20068;-45
2024/01/03 04:38:02;;;;;;;9.23;4.68;;;;;;;6.72;100.00;98887.13;5072587;28;20067;-46
2024/01/03 04:40:31;;;;;;;10.80;4.70;;;;;;;6.76;100.00;98883.34;5078969;28;20048;-46
2024/01/03 04:42:59;;;;;;;10.00;4.95;;;;;;;6.78;100.00;98884.09;5092493;28;20062;-46
2024/01/03 04:45:27;;;;;;;10.68;5.30;;;;;;;6.79;100.00;98874.34;5092571;28;20044;-45
2024/01/03 04:47:56;;;;;;;8.95;4.32;;;;;;;6.78;100.00;98877.94;5092249;28;20501;-45
2024/01/03 04:50:24;;;;;;;9.50;5.00;;;;;;;6.77;100.00;98882.41;5091817;28;20482;-46
2024/01/03 04:52:53;;;;;;;9.60;4.78;;;;;;;6.85;100.00;98877.44;5072016;28;20069;-48
2024/01/03 04:55:22;;;;;;;9.45;4.75;;;;;;;6.79;100.00;98875.19;5072507;28;20401;-45
2024/01/03 04:57:51;;;;;;;10.05;4.63;;;;;;;6.81;100.00;98870.63;5072171;28;20044;-47
2024/01/03 05:00:19;;;;;;;12.32;4.90;;;;;;;6.71;100.00;98868.69;5072192;28;20123;-46
2024/01/03 05:02:48;;;;;;;9.57;4.68;;;;;;;6.77;100.00;98855.88;5072087;28;20044;-47
2024/01/03 05:05:16;;;;;;;8.85;4.93;;;;;;;6.85;100.00;98860.66;5072075;28;20075;-46
2024/01/03 05:07:44;;;;;;;9.40;4.93;;;;;;;6.82;100.00;98847.63;5071792;28;20253;-45
2024/01/03 05:10:13;;;;;;;9.40;5.00;;;;;;;6.88;100.00;98861.31;5071758;28;20044;-46
2024/01/03 05:12:42;;;;;;;11.70;4.93;;;;;;;6.85;100.00;98865.94;5082162;28;20052;-46
2024/01/03 05:15:11;;;;;;;10.02;4.50;;;;;;;6.89;100.00;98878.91;5091952;28;20044;-45
2024/01/03 05:17:41;;;;;;;11.25;4.68;;;;;;;6.91;100.00;98864.72;5088856;28;20106;-45
2024/01/03 05:20:10;;;;;;;9.25;4.50;;;;;;;6.94;100.00;98867.16;5071523;28;20044;-45
2024/01/03 05:22:39;;;;;;;9.20;4.85;;;;;;;6.93;100.00;98874.25;5071673;28;20048;-46
2024/01/03 05:25:07;;;;;;;8.32;4.40;;;;;;;6.96;100.00;98883.81;5071493;28;20052;-45
2024/01/03 05:27:36;;;;;;;8.05;4.47;;;;;;;6.90;100.00;98866.50;5085787;28;20044;-46
2024/01/03 05:30:07;;;;;;;9.23;4.38;;;;;;;6.91;100.00;98859.41;5091842;28;20087;-46
2024/01/03 05:32:36;;;;;;;9.13;4.45;;;;;;;6.76;100.00;98862.16;5087017;28;20052;-46
2024/01/03 05:35:05;;;;;;;10.50;4.57;;;;;;;6.91;100.00;98860.25;5075875;28;20569;-47
2024/01/03 05:37:33;;;;;;;9.73;4.53;;;;;;;6.86;100.00;98867.69;5078010;28;20036;-45
2024/01/03 05:40:02;;;;;;;8.82;4.63;;;;;;;6.89;100.00;98868.31;5091801;28;20054;-46
2024/01/03 05:42:30;;;;;;;10.77;4.57;;;;;;;6.80;100.00;98860.97;5091070;28;20576;-45
2024/01/03 05:44:58;;;;;;;10.32;4.60;;;;;;;6.77;100.00;98871.78;5091561;28;20508;-46
2024/01/03 05:47:28;;;;;;;8.15;4.22;;;;;;;6.89;100.00;98872.78;5091645;28;20063;-45
2024/01/03 05:49:56;;;;;;;11.43;4.60;;;;;;;6.83;100.00;98868.72;5091879;28;20135;-47
2024/01/03 05:52:25;;;;;;;10.50;5.03;;;;;;;6.88;100.00;98868.41;5091330;28;20048;-46
2024/01/03 05:54:54;;;;;;;10.30;4.30;;;;;;;6.91;100.00;98865.56;5091597;28;20044;-45
2024/01/03 05:57:23;;;;;;;10.10;5.22;;;;;;;6.91;100.00;98875.31;5052078;28;20482;-46
2024/01/03 05:59:51;;;;;;;9.23;4.75;;;;;;;6.92;100.00;98872.56;5052073;28;20140;-45
2024/01/03 06:02:19;;;;;;;14.95;5.30;;;;;;;6.87;100.00;98880.81;5052309;28;20375;-46
2024/01/03 06:04:49;;;;;;;8.85;4.50;;;;;;;6.96;100.00;98881.16;5090357;28;20124;-47
2024/01/03 06:07:18;;;;;;;9.30;4.95;;;;;;;6.92;100.00;98885.81;5091809;28;20044;-46
2024/01/03 06:09:46;;;;;;;10.02;4.55;;;;;;;6.92;100.00;98885.81;5091761;28;20493;-46
2024/01/03 06:12:14;;;;;;;11.20;4.88;;;;;;;6.93;100.00;98889.31;5092333;28;20060;-45
2024/01/03 06:14:43;;;;;;;8.88;4.80;;;;;;;6.97;100.00;98885.50;5091703;28;20085;-46
2024/01/03 06:17:11;;;;;;;11.25;4.88;;;;;;;6.93;100.00;98892.81;5091840;28;20083;-46
2024/01/03 06:19:40;;;;;;;11.93;4.93;;;;;;;7.03;100.00;98895.69;5092129;28;20101;-45
2024/01/03 06:22:10;;;;;;;11.23;4.75;;;;;;;6.95;100.00;98896.22;5091589;28;20075;-45
2024/01/03 06:24:38;;;;;;;10.70;4.38;;;;;;;7.06;100.00;98900.81;5089868;28;20097;-46
2024/01/03 06:27:07;;;;;;;9.98;4.53;;;;;;;7.10;100.00;98907.59;5091464;28;20080;-44
2024/01/03 06:29:35;;;;;;;7.25;4.22;;;;;;;7.17;100.00;98887.66;5086434;28;20045;-46
2024/01/03 06:32:07;;;;;;;8.05;4.28;;;;;;;7.14;100.00;98895.81;5071218;28;20468;-45
2024/01/03 06:34:36;;;;;;;9.07;4.22;;;;;;;7.21;100.00;98890.94;5071134;28;20051;-46
2024/01/03 06:37:04;;;;;;;8.55;4.28;;;;;;;7.22;100.00;98906.75;5071085;28;20048;-45
2024/01/03 06:39:34;;;;;;;7.57;4.00;;;;;;;7.19;100.00;98891.06;5079590;28;20050;-46
2024/01/03 06:42:03;;;;;;;9.35;4.47;;;;;;;7.11;100.00;98894.22;5089801;28;20518;-46
2024/01/03 06:44:31;;;;;;;8.85;4.63;;;;;;;7.07;100.00;98897.19;5082544;28;20129;-44
2024/01/03 06:47:03;;;;;;;7.55;4.70;;;;;;;7.09;100.00;98897.94;5073554;28;20444;-45
2024/01/03 06:49:31;;;;;;;9.82;5.10;;;;;;;7.02;100.00;98894.84;5076165;28;20072;-46
2024/01/03 06:52:00;;;;;;;9.95;4.63;;;;;;;7.06;100.00;98895.50;5072664;28;20045;-46
2024/01/03 06:54:28;;;;;;;10.52;4.90;;;;;;;7.10;100.00;98894.34;5076968;28;20059;-45
2024/01/03 06:56:58;;;;;;;10.07;4.85;;;;;;;7.10;100.00;98895.19;5075973;28;20132;-46
2024/01/03 06:59:27;;;;;;;10.13;5.03;;;;;;;7.15;100.00;98897.53;5077954;28;20040;-43
2024/01/03 07:01:56;;;;;;;9.88;4.85;;;;;;;7.13;100.00;98896.78;5076157;28;20044;-45
2024/01/03 07:04:25;;;;;;;11.68;5.60;;;;;;;7.25;100.00;98895.97;5080415;28;20056;-45
2024/01/03 07:06:54;;;;;;;10.48;4.78;;;;;;;7.20;100.00;98897.22;5083297;28;20048;-45
2024/01/03 07:09:22;;;;;;;8.95;4.03;;;;;;;7.28;100.00;98889.59;5090753;28;20131;-47
2024/01/03 07:11:50;;;;;;;7.30;4.13;;;;;;;7.35;100.00;98894.38;5080502;28;20139;-46
2024/01/03 07:14:20;;;;;;;8.70;4.10;;;;;;;7.37;100.00;98889.81;5080378;28;20052;-45
2024/01/03 07:16:48;;;;;;;11.57;4.88;;;;;;;7.47;100.00;98893.53;5080764;28;20070;-47
2024/01/03 07:19:19;;;;;;;8.85;4.28;;;;;;;7.47;100.00;98896.19;5078742;28;20103;-44
2024/01/03 07:21:48;;;;;;;9.88;3.90;;;;;;;7.45;100.00;98900.75;5079071;28;20044;-45
2024/01/03 07:24:16;;;;;;;9.25;4.25;;;;;;;7.49;100.00;98897.88;5079272;28;20465;-46
2024/01/03 07:26:45;;;;;;;10.57;4.22;;;;;;;7.37;100.00;98892.47;5078673;28;20480;-45
2024/01/03 07:29:13;;;;;;;9.18;4.55;;;;;;;7.32;100.00;98910.47;5077932;28;20413;-45
2024/01/03 07:31:43;;;;;;;12.80;4.82;;;;;;;7.25;100.00;98901.25;5078126;28;20470;-46
2024/01/03 07:34:11;;;;;;;7.65;4.53;;;;;;;7.23;100.00;98911.09;5078598;28;20045;-46
2024/01/03 07:36:40;;;;;;;12.63;5.72;;;;;;;7.31;100.00;98903.47;5079930;28;20044;-46
2024/01/03 07:39:09;;;;;;;8.88;4.68;;;;;;;7.27;100.00;98904.66;5081035;28;20043;-46
2024/01/03 07:41:39;;;;;;;11.93;4.55;;;;;;;7.30;100.00;98899.13;5076787;28;20079;-46
2024/01/03 07:44:07;;;;;;;9.13;5.00;;;;;;;7.30;100.00;98891.19;5079468;28;20105;-45
2024/01/03 07:46:35;;;;;;;10.93;5.30;;;;;;;7.27;100.00;98893.19;5080124;28;20515;-46
2024/01/03 07:49:05;;;;;;;9.48;5.05;;;;;;;7.26;100.00;98889.69;5091879;28;20126;-48
2024/01/03 07:51:38;;;;;;;11.60;5.28;;;;;;;7.31;100.00;98900.81;5085291;28;20063;-46
2024/01/03 07:54:07;;;;;;;10.45;5.13;;;;;;;7.37;100.00;98895.13;5077837;28;20047;-46
2024/01/03 07:56:36;;;;;;;9.60;4.30;;;;;;;7.53;100.00;98894.91;5079565;28;20102;-45
2024/01/03 07:59:05;;;;;;;7.55;4.05;;;;;;;7.68;100.00;98898.31;5081580;28;20131;-44
2024/01/03 08:01:33;;;;;;;9.57;4.40;;;;;;;7.78;100.00;98893.19;5081783;28;20143;-49
2024/01/03 08:04:01;;;;;;;9.95;4.32;;;;;;;7.92;100.00;98895.75;5084228;28;20868;-45
2024/01/03 08:06:31;;;;;;;8.27;4.43;;;;;;;8.02;100.00;98896.78;5077253;28;20070;-46
2024/01/03 08:08:59;;;;;;;8.38;4.22;;;;;;;8.15;100.00;98891.44;5078890;28;20558;-45
2024/01/03 08:11:28;;;;;;;8.63;4.40;;;;;;;8.24;100.00;98890.78;5082688;28;20040;-46
2024/01/03 08:13:56;;;;;;;8.65;4.30;;;;;;;8.35;100.00;98898.84;5078044;28;20143;-46
2024/01/03 08:16:25;;;;;;;10.18;4.03;;;;;;;8.36;100.00;98905.84;5079625;28;20676;-45
2024/01/03 08:18:53;;;;;;;7.88;4.40;;;;;;;8.40;100.00;98909.16;5083318;28;20040;-46
2024/01/03 08:21:21;;;;;;;7.93;3.97;;;;;;;8.45;100.00;98917.63;5075724;28;20048;-47
2024/01/03 08:23:51;;;;;;;8.35;3.70;;;;;;;8.57;100.00;98914.91;5083201;28;20055;-46
2024/01/03 08:26:21;;;;;;;9.57;4.13;;;;;;;8.59;100.00;98922.81;5082187;28;20149;-44
2024/01/03 08:28:49;;;;;;;7.90;3.55;;;;;;;8.60;100.00;98924.50;5078869;28;20060;-46
2024/01/03 08:31:19;;;;;;;8.32;3.85;;;;;;;8.64;100.00;98919.81;5077232;28;20192;-45
2024/01/03 08:33:47;;;;;;;6.60;3.53;;;;;;;8.66;100.00;98925.84;5080246;28;20048;-47
2024/01/03 08:36:16;;;;;;;5.78;3.33;;;;;;;8.67;100.00;98931.03;5082348;28;20056;-45
2024/01/03 08:38:45;;;;;;;7.05;3.58;;;;;;;8.65;100.00;98930.31;5082419;28;20450;-45
2024/01/03 08:41:16;;;;;;;9.13;3.80;;;;;;;8.68;100.00;98931.88;5080446;28;20402;-46
2024/01/03 08:43:45;;;;;;;5.90;3.20;;;;;;;8.63;100.00;98932.25;5076560;28;20048;-45
2024/01/03 08:46:14;;;;;;;6.22;2.95;;;;;;;8.68;100.00;98932.75;5076946;28;20138;-44
2024/01/03 08:48:42;;;;;;;6.80;2.55;;;;;;;8.74;100.00;98936.78;5076393;28;20048;-45
2024/01/03 08:51:13;;;;;;;6.97;2.75;;;;;;;8.77;100.00;98937.38;5075861;28;20050;-46
2024/01/03 08:53:41;;;;;;;7.15;2.65;;;;;;;8.84;100.00;98949.28;5077931;28;20477;-46
2024/01/03 08:56:16;;;;;;;4.75;2.53;;;;;;;8.84;100.00;98945.78;5076613;28;20048;-45
2024/01/03 08:58:46;;;;;;;5.90;2.90;;;;;;;8.76;100.00;98945.47;5077950;28;20048;-44
2024/01/03 09:01:18;;;;;;;5.55;2.60;;;;;;;8.79;100.00;98939.97;5078650;28;20048;-44
2024/01/03 09:03:47;;;;;;;4.57;2.38;;;;;;;8.80;100.00;98961.09;5076205;28;20385;-44
2024/01/03 09:06:19;;;;;;;5.65;2.65;;;;;;;8.85;100.00;98960.75;5075837;28;20052;-46
2024/01/03 09:08:50;;;;;;;6.00;2.70;;;;;;;8.87;100.00;98953.50;5073947;28;20052;-47
2024/01/03 09:11:24;;;;;;;5.65;2.60;;;;;;;8.86;100.00;98954.47;5075480;28;20084;-45
2024/01/03 09:13:56;;;;;;;4.20;2.40;;;;;;;8.89;100.00;98967.56;5071908;28;20089;-44
2024/01/03 09:16:27;;;;;;;5.15;2.30;;;;;;;8.92;100.00;98971.81;5077544;28;20083;-45
2024/01/03 09:18:55;;;;;;;5.85;2.28;;;;;;;8.91;100.00;98970.94;5074013;28;20394;-46
2024/01/03 09:21:26;;;;;;;3.47;2.00;;;;;;;8.89;100.00;98957.78;5075418;28;20048;-45
2024/01/03 09:23:54;;;;;;;4.90;2.10;;;;;;;8.92;100.00;98959.34;5074937;28;20066;-46
2024/01/03 09:26:24;;;;;;;6.85;1.90;;;;;;;8.99;100.00;98951.78;5077683;28;20048;-46
2024/01/03 09:28:53;;;;;;;5.13;2.08;;;;;;;9.07;100.00;98962.66;5075884;28;20048;-45
2024/01/03 09:31:22;;;;;;;9.82;4.35;;;;;;;9.18;100.00;98952.09;5073808;28;20420;-45
2024/01/03 09:33:50;;;;;;;22.90;12.10;;;;;;;9.27;100.00;98963.88;5076967;28;20040;-45
2024/01/03 09:36:19;;;;;;;46.10;24.73;;;;;;;9.40;100.00;98967.28;5075160;28;20149;-45
2024/01/03 09:38:54;;;;;;;10.57;4.80;;;;;;;9.47;100.00;98968.53;5074783;28;20397;-46
2024/01/03 09:41:24;;;;;;;6.13;2.83;;;;;;;9.46;100.00;98961.53;5073562;28;20477;-45
2024/01/03 09:43:55;;;;;;;6.03;2.83;;;;;;;9.45;100.00;98965.13;5072393;28;20051;-44
2024/01/03 09:46:24;;;;;;;4.97;2.85;;;;;;;9.49;100.00;98961.28;5073541;28;20476;-44
2024/01/03 09:48:52;;;;;;;7.38;3.50;;;;;;;9.41;100.00;98955.69;5073933;28;20405;-44
2024/01/03 09:51:21;;;;;;;8.55;4.03;;;;;;;9.47;100.00;98957.88;5072141;28;20040;-45
2024/01/03 09:53:51;;;;;;;8.00;3.83;;;;;;;9.41;100.00;98948.53;5073814;28;20477;-47
2024/01/03 09:56:20;;;;;;;8.48;4.45;;;;;;;9.43;100.00;98962.56;5070410;28;20540;-45
2024/01/03 09:58:50;;;;;;;8.82;4.65;;;;;;;9.37;100.00;98959.56;5076717;28;20055;-46
2024/01/03 10:01:19;;;;;;;9.50;4.68;;;;;;;9.36;100.00;98960.50;5074694;28;20509;-45
2024/01/03 10:03:47;;;;;;;11.57;4.93;;;;;;;9.36;100.00;98976.44;5075959;28;20048;-45
2024/01/03 10:06:16;;;;;;;8.35;4.53;;;;;;;9.28;100.00;98969.06;5069709;28;20040;-46
2024/01/03 10:08:58;;;;;;;8.70;5.03;;;;;;;9.26;100.00;98970.13;5075371;28;20051;-46
2024/01/03 10:11:28;;;;;;;9.00;4.45;;;;;;;9.16;100.00;98964.66;5073487;28;20063;-45
2024/01/03 10:14:15;;;;;;;7.70;3.13;;;;;;;9.42;100.00;98962.69;5076466;28;20152;-44
2024/01/03 10:16:44;;;;;;;11.10;4.35;;;;;;;9.31;100.00;98954.69;5073062;28;20144;-44
2024/01/03 10:19:14;;;;;;;6.25;2.45;;;;;;;9.41;100.00;98963.66;5073182;28;20062;-44
2024/01/03 10:21:49;;;;;;;5.22;2.30;;;;;;;9.48;100.00;98956.91;5073245;28;20387;-44
2024/01/03 10:24:18;;;;;;;4.00;1.60;;;;;;;9.67;100.00;98965.19;5074133;28;20040;-44
2024/01/03 10:26:48;;;;;;;2.75;1.30;;;;;;;9.88;100.00;98961.84;5074626;28;20119;-45
2024/01/03 10:29:19;;;;;;;2.65;1.45;;;;;;;10.02;100.00;98964.25;5077852;28;20135;-46
2024/01/03 10:31:48;;;;;;;1.73;1.13;;;;;;;10.06;100.00;98965.72;5077874;28;20039;-43
2024/01/03 10:34:22;;;;;;;4.32;1.50;;;;;;;10.20;100.00;98960.16;5078159;28;20048;-46
2024/01/03 10:36:53;;;;;;;4.88;1.30;;;;;;;10.19;100.00;98954.94;5078783;28;20143;-43
2024/01/03 10:39:23;;;;;;;3.63;1.40;;;;;;;10.35;100.00;98951.97;5077371;28;20467;-45
2024/01/03 10:41:53;;;;;;;5.35;2.13;;;;;;;10.55;100.00;98948.53;5079051;28;20043;-43
2024/01/03 10:44:23;;;;;;;4.75;2.10;;;;;;;10.50;100.00;98956.03;5077119;28;20048;-46
2024/01/03 10:46:54;;;;;;;4.80;2.30;;;;;;;10.50;100.00;98950.72;5078964;28;20067;-44
2024/01/03 10:49:23;;;;;;;3.25;1.70;;;;;;;10.77;100.00;98950.31;5081493;28;20040;-44
2024/01/03 10:52:01;;;;;;;3.05;1.80;;;;;;;10.95;100.00;98947.97;5079322;28;20048;-46
2024/01/03 10:54:39;;;;;;;3.45;1.77;;;;;;;11.30;100.00;98937.88;5079224;28;20076;-45
2024/01/03 10:57:08;;;;;;;4.28;1.50;;;;;;;11.32;100.00;98932.41;5078770;28;20063;-46
2024/01/03 10:59:46;;;;;;;4.18;1.70;;;;;;;11.40;100.00;98933.47;5078509;28;20147;-46
2024/01/03 11:02:25;;;;;;;4.32;1.90;;;;;;;11.45;100.00;98930.38;5078296;28;20036;-46
2024/01/03 11:04:58;;;;;;;6.15;2.38;;;;;;;11.51;100.00;98932.53;5077596;28;20132;-48
2024/01/03 11:07:34;;;;;;;6.65;3.00;;;;;;;11.60;100.00;98923.75;5079263;28;20044;-44
2024/01/03 11:10:02;;;;;;;6.88;2.50;;;;;;;11.38;100.00;98919.38;5079365;28;20051;-47
2024/01/03 11:12:30;;;;;;;5.13;2.45;;;;;;;11.37;100.00;98917.69;5082948;28;20488;-45
2024/01/03 11:15:23;;;;;;;5.22;2.78;;;;;;;11.33;100.00;98921.59;5084072;28;20143;-47
2024/01/03 11:18:09;;;;;;;4.20;2.55;;;;;;;11.18;100.00;98922.88;5083616;28;20056;-46
2024/01/03 11:20:39;;;;;;;4.15;2.40;;;;;;;11.19;100.00;98921.88;5080983;28;20459;-46
2024/01/03 11:23:07;;;;;;;5.75;2.55;;;;;;;11.16;100.00;98923.00;5077501;28;20036;-45
2024/01/03 11:25:46;;;;;;;5.63;2.70;;;;;;;11.27;100.00;98921.25;5077265;28;20048;-45
2024/01/03 11:28:31;;;;;;;4.57;2.45;;;;;;;11.21;100.00;98917.28;5076609;28;20040;-46
2024/01/03 11:31:01;;;;;;;5.38;2.63;;;;;;;11.28;100.00;98912.25;5078707;28;20375;-46
2024/01/03 11:33:31;;;;;;;7.22;2.80;;;;;;;11.24;100.00;98909.03;5075687;28;20047;-46
2024/01/03 11:36:01;;;;;;;5.20;2.40;;;;;;;11.32;100.00;98903.88;5078204;28;20040;-47
2024/01/03 11:38:42;;;;;;;5.20;2.30;;;;;;;11.38;100.00;98899.84;5076311;28;20055;-45